createdAt,value
2022-08-28T00:01:58.139Z,12.90
2022-08-28T00:04:29.093Z,12.75
2022-08-28T00:06:59.807Z,14.58
2022-08-28T00:09:30.378Z,11.93
2022-08-28T00:12:00.853Z,11.57
2022-08-28T00:14:31.768Z,12.10
2022-08-28T00:17:02.976Z,12.43
2022-08-28T00:19:38.431Z,13.00
2022-08-28T00:22:08.146Z,11.73
2022-08-28T00:24:38.611Z,11.53
2022-08-28T00:27:26.808Z,11.30
2022-08-28T00:29:57.268Z,11.33
2022-08-28T00:32:28.424Z,9.58
2022-08-28T00:35:00.424Z,9.60
2022-08-28T00:37:30.969Z,10.70
2022-08-28T00:40:01.496Z,7.62
2022-08-28T00:42:38.622Z,10.80
2022-08-28T00:45:09.882Z,8.75
2022-08-28T00:47:40.989Z,8.88
2022-08-28T00:50:14.559Z,10.08
2022-08-28T00:52:48.275Z,10.10
2022-08-28T00:55:22.337Z,10.70
2022-08-28T00:57:56.487Z,10.18
2022-08-28T01:00:29.997Z,9.85
2022-08-28T01:03:01.234Z,9.90
2022-08-28T01:05:32.989Z,8.30
2022-08-28T01:08:04.633Z,7.22
2022-08-28T01:10:37.514Z,10.80
2022-08-28T01:13:08.304Z,7.47
2022-08-28T01:15:42.177Z,6.92
2022-08-28T01:18:16.256Z,8.63
2022-08-28T01:20:58.415Z,12.28
2022-08-28T01:23:53.297Z,8.50
2022-08-28T01:26:24.899Z,9.40
2022-08-28T01:28:58.265Z,10.85
2022-08-28T01:31:31.308Z,10.00
2022-08-28T01:34:01.793Z,9.50
2022-08-28T01:36:33.507Z,11.57
2022-08-28T01:39:07.008Z,10.82
2022-08-28T01:41:43.565Z,11.30
2022-08-28T01:44:17.875Z,10.72
2022-08-28T01:46:48.442Z,16.27
2022-08-28T01:49:19.118Z,12.95
2022-08-28T01:51:49.923Z,16.12
2022-08-28T01:54:21.982Z,12.10
2022-08-28T01:56:53.551Z,11.30
2022-08-28T01:59:24.582Z,14.13
2022-08-28T02:01:56.712Z,12.37
2022-08-28T02:04:31.705Z,17.27
2022-08-28T02:06:59.824Z,14.40
2022-08-28T02:09:30.373Z,11.57
2022-08-28T02:12:00.838Z,12.73
2022-08-28T02:14:31.571Z,14.45
2022-08-28T02:17:03.009Z,11.90
2022-08-28T02:19:34.041Z,12.30
2022-08-28T02:22:06.296Z,13.80
2022-08-28T02:24:37.203Z,15.45
2022-08-28T02:27:07.979Z,14.55
2022-08-28T02:29:39.297Z,16.93
2022-08-28T02:32:09.721Z,11.93
2022-08-28T02:34:41.457Z,13.75
2022-08-28T02:37:13.707Z,10.75
2022-08-28T02:39:44.788Z,10.70
2022-08-28T02:42:15.791Z,12.80
2022-08-28T02:44:47.317Z,13.20
2022-08-28T02:47:18.321Z,12.47
2022-08-28T02:49:48.987Z,10.90
2022-08-28T02:52:19.743Z,11.78
2022-08-28T02:54:50.124Z,10.68
2022-08-28T02:57:20.594Z,8.50
2022-08-28T02:59:51.024Z,8.88
2022-08-28T03:02:21.551Z,10.48
2022-08-28T03:04:53.975Z,10.53
2022-08-28T03:07:24.418Z,12.18
2022-08-28T03:09:54.918Z,12.35
2022-08-28T03:12:25.776Z,10.75
2022-08-28T03:14:56.885Z,10.90
2022-08-28T03:17:27.427Z,11.05
2022-08-28T03:19:57.905Z,10.55
2022-08-28T03:22:46.323Z,15.40
2022-08-28T03:25:17.430Z,11.50
2022-08-28T03:27:49.215Z,11.12
2022-08-28T03:30:20.710Z,13.58
2022-08-28T03:32:52.218Z,7.80
2022-08-28T03:35:22.592Z,7.03
2022-08-28T03:37:53.071Z,9.88
2022-08-28T03:40:23.612Z,11.50
2022-08-28T03:42:54.201Z,8.25
2022-08-28T03:45:25.147Z,9.45
2022-08-28T03:47:56.525Z,8.93
2022-08-28T03:50:28.472Z,9.48
2022-08-28T03:52:59.939Z,8.80
2022-08-28T03:55:30.401Z,10.15
2022-08-28T03:58:01.131Z,11.30
2022-08-28T04:00:31.573Z,11.30
2022-08-28T04:03:02.461Z,8.98
2022-08-28T04:05:34.613Z,13.85
2022-08-28T04:08:05.815Z,10.68
2022-08-28T04:10:36.778Z,8.10
2022-08-28T04:13:07.554Z,5.33
2022-08-28T04:15:37.982Z,7.55
2022-08-28T04:18:09.196Z,9.68
2022-08-28T04:20:40.064Z,10.08
2022-08-28T04:23:10.583Z,8.43
2022-08-28T04:25:42.021Z,8.38
2022-08-28T04:28:12.742Z,11.30
2022-08-28T04:30:43.317Z,8.13
2022-08-28T04:33:13.714Z,8.80
2022-08-28T04:35:44.168Z,9.05
2022-08-28T04:38:14.695Z,10.50
2022-08-28T04:40:45.344Z,11.70
2022-08-28T04:43:17.278Z,8.95
2022-08-28T04:45:48.318Z,9.15
2022-08-28T04:48:18.974Z,7.42
2022-08-28T04:50:51.144Z,9.45
2022-08-28T04:53:21.724Z,9.60
2022-08-28T04:55:55.208Z,12.28
2022-08-28T04:58:26.183Z,5.75
2022-08-28T05:00:57.119Z,8.50
2022-08-28T05:03:27.598Z,10.28
2022-08-28T05:05:58.058Z,12.10
2022-08-28T05:08:29.589Z,11.10
2022-08-28T05:11:01.649Z,12.53
2022-08-28T05:13:32.113Z,10.75
2022-08-28T05:16:04.595Z,7.40
2022-08-28T05:18:35.822Z,9.30
2022-08-28T05:21:10.610Z,9.60
2022-08-28T05:23:40.103Z,10.08
2022-08-28T05:26:19.863Z,8.63
2022-08-28T05:28:50.867Z,10.53
2022-08-28T05:31:23.863Z,9.78
2022-08-28T05:33:54.828Z,8.35
2022-08-28T05:36:32.656Z,7.72
2022-08-28T05:39:02.060Z,10.58
2022-08-28T05:41:32.997Z,9.33
2022-08-28T05:44:06.840Z,15.00
2022-08-28T05:46:42.368Z,8.33
2022-08-28T05:49:13.484Z,6.60
2022-08-28T05:51:44.175Z,10.10
2022-08-28T05:54:15.788Z,9.63
2022-08-28T05:56:48.063Z,10.43
2022-08-28T05:59:18.904Z,9.23
2022-08-28T06:01:50.842Z,8.00
2022-08-28T06:04:24.228Z,12.07
2022-08-28T06:06:54.993Z,8.80
2022-08-28T06:09:29.782Z,10.63
2022-08-28T06:12:02.702Z,12.90
2022-08-28T06:14:33.965Z,7.05
2022-08-28T06:17:06.165Z,9.00
2022-08-28T06:19:41.270Z,9.60
2022-08-28T06:22:10.904Z,14.25
2022-08-28T06:24:41.799Z,10.15
2022-08-28T06:27:12.259Z,9.33
2022-08-28T06:29:44.344Z,10.10
2022-08-28T06:32:14.961Z,10.63
2022-08-28T06:34:46.025Z,10.78
2022-08-28T06:37:16.550Z,11.45
2022-08-28T06:39:47.099Z,9.78
2022-08-28T06:42:17.560Z,8.88
2022-08-28T06:44:48.013Z,10.38
2022-08-28T06:47:18.373Z,7.92
2022-08-28T06:49:48.752Z,11.43
2022-08-28T06:52:20.524Z,12.05
2022-08-28T06:54:55.480Z,12.85
2022-08-28T06:57:23.691Z,10.68
2022-08-28T07:00:00.794Z,12.28
2022-08-28T07:02:31.523Z,11.08
2022-08-28T07:05:02.047Z,11.73
2022-08-28T07:07:32.845Z,10.30
2022-08-28T07:10:03.514Z,9.95
2022-08-28T07:12:34.140Z,8.00
2022-08-28T07:15:05.625Z,10.32
2022-08-28T07:17:36.066Z,9.48
2022-08-28T07:20:07.248Z,11.57
2022-08-28T07:22:40.165Z,10.45
2022-08-28T07:25:12.146Z,9.85
2022-08-28T07:27:42.519Z,7.75
2022-08-28T07:30:13.521Z,11.45
2022-08-28T07:32:43.947Z,10.78
2022-08-28T07:35:14.365Z,10.23
2022-08-28T07:37:45.047Z,9.28
2022-08-28T07:40:15.491Z,12.30
2022-08-28T07:43:04.226Z,7.05
2022-08-28T07:45:36.044Z,12.15
2022-08-28T07:48:11.530Z,7.90
2022-08-28T07:50:41.361Z,9.43
2022-08-28T07:53:12.139Z,7.50
2022-08-28T07:55:42.624Z,8.70
2022-08-28T07:58:14.678Z,8.90
2022-08-28T08:00:45.691Z,8.88
2022-08-28T08:03:16.326Z,10.78
2022-08-28T08:06:02.901Z,7.62
2022-08-28T08:08:34.951Z,6.67
2022-08-28T08:11:11.188Z,10.28
2022-08-28T08:13:41.726Z,10.48
2022-08-28T08:16:21.643Z,11.88
2022-08-28T08:18:53.249Z,7.45
2022-08-28T08:21:28.286Z,10.10
2022-08-28T08:23:56.395Z,9.60
2022-08-28T08:26:31.244Z,8.23
2022-08-28T08:29:02.430Z,8.70
2022-08-28T08:31:35.232Z,8.70
2022-08-28T08:34:06.954Z,11.83
2022-08-28T08:36:40.144Z,10.82
2022-08-28T08:39:10.611Z,9.53
2022-08-28T08:41:54.405Z,8.65
2022-08-28T08:44:36.643Z,12.95
2022-08-28T08:47:19.524Z,7.85
2022-08-28T08:50:04.732Z,10.15
2022-08-28T08:52:59.041Z,9.68
2022-08-28T08:55:33.794Z,9.85
2022-08-28T08:58:10.635Z,10.85
2022-08-28T09:00:59.557Z,10.28
2022-08-28T09:03:55.867Z,13.28
2022-08-28T09:06:29.482Z,14.15
2022-08-28T09:09:03.631Z,8.93
2022-08-28T09:11:52.265Z,11.00
2022-08-28T09:14:26.937Z,10.95
2022-08-28T09:16:58.961Z,11.05
2022-08-28T09:19:29.398Z,8.88
2022-08-28T09:21:59.855Z,10.38
2022-08-28T09:24:34.380Z,8.63
2022-08-28T09:27:14.305Z,10.20
2022-08-28T09:29:43.904Z,18.87
2022-08-28T09:32:26.619Z,10.08
2022-08-28T09:35:11.629Z,12.33
2022-08-28T09:37:45.502Z,9.23
2022-08-28T09:40:48.994Z,10.13
2022-08-28T09:43:28.827Z,15.65
2022-08-28T09:46:26.776Z,10.98
2022-08-28T09:49:15.536Z,9.23
2022-08-28T09:51:47.482Z,10.48
2022-08-28T09:54:22.296Z,10.30
2022-08-28T09:56:53.306Z,11.30
2022-08-28T09:59:26.961Z,9.18
2022-08-28T10:02:03.450Z,11.38
2022-08-28T10:04:54.134Z,10.82
2022-08-28T10:07:46.431Z,10.82
2022-08-28T10:10:35.271Z,10.25
2022-08-28T10:13:08.819Z,9.25
2022-08-28T10:16:04.986Z,11.35
2022-08-28T10:18:58.678Z,12.55
2022-08-28T10:21:32.335Z,8.28
2022-08-28T10:24:14.838Z,10.03
2022-08-28T10:27:06.907Z,9.20
2022-08-28T10:29:58.638Z,10.10
2022-08-28T10:32:37.768Z,11.63
2022-08-28T10:35:14.187Z,10.50
2022-08-28T10:38:06.893Z,10.82
2022-08-28T10:41:04.868Z,9.20
2022-08-28T10:43:47.953Z,13.48
2022-08-28T10:46:27.175Z,9.38
2022-08-28T10:49:05.853Z,11.18
2022-08-28T10:51:44.256Z,11.90
2022-08-28T10:54:19.939Z,10.72
2022-08-28T10:57:12.383Z,9.73
2022-08-28T10:59:46.557Z,9.75
2022-08-28T11:02:20.144Z,9.83
2022-08-28T11:04:56.465Z,13.40
2022-08-28T11:07:42.152Z,8.35
2022-08-28T11:10:38.554Z,9.78
2022-08-28T11:13:13.058Z,9.60
2022-08-28T11:15:49.724Z,10.03
2022-08-28T11:18:28.976Z,11.15
2022-08-28T11:21:26.920Z,11.50
2022-08-28T11:24:04.219Z,10.90
2022-08-28T11:27:03.365Z,12.78
2022-08-28T11:30:00.173Z,11.73
2022-08-28T11:32:36.666Z,8.40
2022-08-28T11:35:23.338Z,10.85
2022-08-28T11:37:56.490Z,9.53
2022-08-28T11:40:37.030Z,10.68
2022-08-28T11:43:18.832Z,11.40
2022-08-28T11:45:59.822Z,10.63
2022-08-28T11:48:43.198Z,11.15
2022-08-28T11:51:22.778Z,11.90
2022-08-28T11:54:02.071Z,9.50
2022-08-28T11:56:55.093Z,10.43
2022-08-28T11:59:39.214Z,10.28
2022-08-28T12:02:40.087Z,9.75
2022-08-28T12:05:20.192Z,12.33
2022-08-28T12:07:52.441Z,11.63
2022-08-28T12:10:30.675Z,10.72
2022-08-28T12:13:03.974Z,12.15
2022-08-28T12:15:37.533Z,13.60
2022-08-28T12:18:36.661Z,12.73
2022-08-28T12:21:10.347Z,12.33
2022-08-28T12:23:47.102Z,13.60
2022-08-28T12:26:20.724Z,12.03
2022-08-28T12:29:10.989Z,10.25
2022-08-28T12:32:05.953Z,11.30
2022-08-28T12:34:45.773Z,11.22
2022-08-28T12:37:50.853Z,10.75
2022-08-28T12:40:15.471Z,11.38
2022-08-28T12:42:59.627Z,10.98
2022-08-28T12:45:38.856Z,13.15
2022-08-28T12:48:35.530Z,9.83
2022-08-28T12:51:09.606Z,10.30
2022-08-28T12:53:46.674Z,11.00
2022-08-28T12:56:19.763Z,9.78
2022-08-28T12:58:51.289Z,11.35
2022-08-28T13:01:35.486Z,10.72
2022-08-28T13:04:09.184Z,9.70
2022-08-28T13:06:41.173Z,14.93
2022-08-28T13:09:24.631Z,9.10
2022-08-28T13:11:55.231Z,10.45
2022-08-28T13:14:46.680Z,9.85
2022-08-28T13:17:20.316Z,7.50
2022-08-28T13:19:53.852Z,9.05
2022-08-28T13:22:36.735Z,8.15
2022-08-28T13:25:08.127Z,8.20
2022-08-28T13:27:40.149Z,6.95
2022-08-28T13:30:22.825Z,8.95
2022-08-28T13:33:01.482Z,8.15
2022-08-28T13:35:41.460Z,8.05
2022-08-28T13:38:16.492Z,7.55
2022-08-28T13:41:04.804Z,10.18
2022-08-28T13:43:47.179Z,6.35
2022-08-28T13:46:19.967Z,7.42
2022-08-28T13:48:51.078Z,7.37
2022-08-28T13:51:24.105Z,8.68
2022-08-28T13:53:56.365Z,6.90
2022-08-28T13:56:28.873Z,6.95
2022-08-28T13:59:01.052Z,7.20
2022-08-28T14:01:49.905Z,7.00
2022-08-28T14:04:22.797Z,8.20
2022-08-28T14:06:53.538Z,6.92
2022-08-28T14:09:27.055Z,8.30
2022-08-28T14:11:58.041Z,7.47
2022-08-28T14:14:28.676Z,9.15
2022-08-28T14:17:01.322Z,5.95
2022-08-28T14:19:34.263Z,7.25
2022-08-28T14:22:06.223Z,12.03
2022-08-28T14:24:37.312Z,8.03
2022-08-28T14:27:07.923Z,7.08
2022-08-28T14:29:43.189Z,6.03
2022-08-28T14:32:15.969Z,7.45
2022-08-28T14:34:47.978Z,9.08
2022-08-28T14:37:19.450Z,6.05
2022-08-28T14:39:50.878Z,7.67
2022-08-28T14:42:21.368Z,6.83
2022-08-28T14:44:52.014Z,6.85
2022-08-28T14:47:24.134Z,8.63
2022-08-28T14:49:55.836Z,7.58
2022-08-28T14:52:32.549Z,7.05
2022-08-28T14:55:04.647Z,7.62
2022-08-28T14:57:37.746Z,7.67
2022-08-28T15:00:10.011Z,6.85
2022-08-28T15:02:43.462Z,7.05
2022-08-28T15:05:15.545Z,5.35
2022-08-28T15:07:45.991Z,5.83
2022-08-28T15:10:17.219Z,6.90
2022-08-28T15:12:48.346Z,6.60
2022-08-28T15:15:21.507Z,6.83
2022-08-28T15:17:52.446Z,8.25
2022-08-28T15:20:23.596Z,9.88
2022-08-28T15:22:55.171Z,6.50
2022-08-28T15:25:29.294Z,6.25
2022-08-28T15:28:01.480Z,6.47
2022-08-28T15:30:32.426Z,6.62
2022-08-28T15:33:03.227Z,8.68
2022-08-28T15:35:37.155Z,7.55
2022-08-28T15:38:09.391Z,7.05
2022-08-28T15:41:00.156Z,6.20
2022-08-28T15:43:30.793Z,5.90
2022-08-28T15:46:02.218Z,7.00
2022-08-28T15:48:36.900Z,6.42
2022-08-28T15:51:08.488Z,8.73
2022-08-28T15:53:41.529Z,6.37
2022-08-28T15:56:17.834Z,6.78
2022-08-28T15:58:48.485Z,9.55
2022-08-28T16:01:21.191Z,6.45
2022-08-28T16:03:53.267Z,6.42
2022-08-28T16:06:24.711Z,5.60
2022-08-28T16:08:57.178Z,5.80
2022-08-28T16:11:32.228Z,5.90
2022-08-28T16:14:04.725Z,4.62
2022-08-28T16:16:38.343Z,5.62
2022-08-28T16:19:11.461Z,8.10
2022-08-28T16:21:43.353Z,6.05
2022-08-28T16:24:13.942Z,11.53
2022-08-28T16:26:44.535Z,5.72
2022-08-28T16:29:18.277Z,7.62
2022-08-28T16:31:48.781Z,8.98
2022-08-28T16:34:20.355Z,6.10
2022-08-28T16:36:52.366Z,8.10
2022-08-28T16:39:22.937Z,8.45
2022-08-28T16:41:53.932Z,6.83
2022-08-28T16:44:27.679Z,5.62
2022-08-28T16:46:58.259Z,7.60
2022-08-28T16:49:29.199Z,5.28
2022-08-28T16:51:59.703Z,7.42
2022-08-28T16:54:31.698Z,9.23
2022-08-28T16:57:02.887Z,5.78
2022-08-28T16:59:33.629Z,9.35
2022-08-28T17:02:05.731Z,4.35
2022-08-28T17:04:36.342Z,4.37
2022-08-28T17:07:06.866Z,7.30
2022-08-28T17:09:37.452Z,7.45
2022-08-28T17:12:18.630Z,5.05
2022-08-28T17:14:49.827Z,10.63
2022-08-28T17:17:26.065Z,8.55
2022-08-28T17:20:03.591Z,6.17
2022-08-28T17:22:37.156Z,8.55
2022-08-28T17:25:32.261Z,4.62
2022-08-28T17:28:06.877Z,7.35
2022-08-28T17:30:37.353Z,8.70
2022-08-28T17:33:09.146Z,9.33
2022-08-28T17:35:41.808Z,5.72
2022-08-28T17:38:11.770Z,8.30
2022-08-28T17:40:42.440Z,8.00
2022-08-28T17:43:13.330Z,8.33
2022-08-28T17:45:45.599Z,7.53
2022-08-28T17:48:17.594Z,5.15
2022-08-28T17:50:48.186Z,9.68
2022-08-28T17:53:19.744Z,9.40
2022-08-28T17:55:52.075Z,7.50
2022-08-28T17:58:22.423Z,6.25
2022-08-28T18:00:54.609Z,9.48
2022-08-28T18:03:25.199Z,6.87
2022-08-28T18:05:56.697Z,8.70
2022-08-28T18:08:28.367Z,8.55
2022-08-28T18:11:00.809Z,6.97
2022-08-28T18:13:32.161Z,6.92
2022-08-28T18:16:02.989Z,7.10
2022-08-28T18:18:36.439Z,7.28
2022-08-28T18:21:07.638Z,8.28
2022-08-28T18:23:47.566Z,9.05
2022-08-28T18:26:17.651Z,6.08
2022-08-28T18:28:48.178Z,7.50
2022-08-28T18:31:19.584Z,7.72
2022-08-28T18:33:52.130Z,12.35
2022-08-28T18:36:23.299Z,7.85
2022-08-28T18:38:54.231Z,5.87
2022-08-28T18:41:34.579Z,8.83
2022-08-28T18:44:04.715Z,5.53
2022-08-28T18:46:32.751Z,7.08
2022-08-28T18:49:04.578Z,6.08
2022-08-28T18:51:35.104Z,7.65
2022-08-28T18:54:06.206Z,9.00
2022-08-28T18:56:38.229Z,3.65
2022-08-28T18:59:09.300Z,5.22
2022-08-28T19:01:39.957Z,4.92
2022-08-28T19:04:10.589Z,6.20
2022-08-28T19:06:41.957Z,5.10
2022-08-28T19:09:19.398Z,5.33
2022-08-28T19:11:44.797Z,8.00
2022-08-28T19:14:15.171Z,7.28
2022-08-28T19:16:46.755Z,5.65
2022-08-28T19:19:17.182Z,4.33
2022-08-28T19:21:48.755Z,5.17
2022-08-28T19:24:22.382Z,7.05
2022-08-28T19:26:54.971Z,4.65
2022-08-28T19:29:25.963Z,4.70
2022-08-28T19:31:56.857Z,4.85
2022-08-28T19:34:29.822Z,6.37
2022-08-28T19:37:01.368Z,7.72
2022-08-28T19:39:33.875Z,5.22
2022-08-28T19:42:06.684Z,6.95
2022-08-28T19:48:00.590Z,5.58
2022-08-28T19:50:30.954Z,6.60
2022-08-28T19:53:01.582Z,6.00
2022-08-28T19:55:35.708Z,5.83
2022-08-28T19:58:06.634Z,5.50
2022-08-28T20:00:37.196Z,6.80
2022-08-28T20:03:07.941Z,4.35
2022-08-28T20:05:38.551Z,6.28
2022-08-28T20:08:09.252Z,7.78
2022-08-28T20:10:40.566Z,6.42
2022-08-28T20:13:11.658Z,6.40
2022-08-28T20:15:45.602Z,4.58
2022-08-28T20:18:17.497Z,6.95
2022-08-28T20:20:49.566Z,4.47
2022-08-28T20:23:19.985Z,8.05
2022-08-28T20:25:52.263Z,6.80
2022-08-28T20:28:22.678Z,5.08
2022-08-28T20:30:53.176Z,6.40
2022-08-28T20:33:24.589Z,5.00
2022-08-28T20:36:03.390Z,4.25
2022-08-28T20:38:34.110Z,5.87
2022-08-28T20:41:09.103Z,6.40
2022-08-28T20:43:40.846Z,7.50
2022-08-28T20:46:13.135Z,7.70
2022-08-28T20:48:44.015Z,7.28
2022-08-28T20:51:14.450Z,7.28
2022-08-28T20:53:45.454Z,5.80
2022-08-28T20:56:16.396Z,6.65
2022-08-28T20:58:46.810Z,6.28
2022-08-28T21:01:17.372Z,7.42
2022-08-28T21:03:48.249Z,8.85
2022-08-28T21:06:18.693Z,7.90
2022-08-28T21:08:50.113Z,8.60
2022-08-28T21:11:20.540Z,9.53
2022-08-28T21:13:51.420Z,7.53
2022-08-28T21:16:21.791Z,8.73
2022-08-28T21:19:12.134Z,12.37
2022-08-28T21:21:24.759Z,6.15
2022-08-28T21:23:55.352Z,6.42
2022-08-28T21:26:25.746Z,6.00
2022-08-28T21:28:56.104Z,8.65
2022-08-28T21:31:26.783Z,7.47
2022-08-28T21:33:57.251Z,5.70
2022-08-28T21:36:27.938Z,10.32
2022-08-28T21:38:58.761Z,7.45
2022-08-28T21:41:29.413Z,7.20
2022-08-28T21:43:59.840Z,7.08
2022-08-28T21:46:30.647Z,7.40
2022-08-28T21:49:01.658Z,8.70
2022-08-28T21:51:32.170Z,5.53
2022-08-28T21:54:02.588Z,9.45
2022-08-28T21:56:33.006Z,6.65
2022-08-28T21:59:03.933Z,8.58
2022-08-28T22:01:35.366Z,10.03
2022-08-28T22:04:06.448Z,8.15
2022-08-28T22:06:37.303Z,6.78
2022-08-28T22:09:09.379Z,6.55
2022-08-28T22:11:39.810Z,8.78
2022-08-28T22:14:11.090Z,7.67
2022-08-28T22:16:41.964Z,6.72
2022-08-28T22:19:12.601Z,4.37
2022-08-28T22:22:00.859Z,5.90
2022-08-28T22:24:31.225Z,7.85
2022-08-28T22:27:03.385Z,7.80
2022-08-28T22:29:35.374Z,9.43
2022-08-28T22:32:06.896Z,7.40
2022-08-28T22:34:40.367Z,5.08
2022-08-28T22:37:14.393Z,5.37
2022-08-28T22:39:44.747Z,6.00
2022-08-28T22:42:15.207Z,6.75
2022-08-28T22:44:45.660Z,5.85
2022-08-28T22:47:16.078Z,6.50
2022-08-28T22:49:48.555Z,6.72
2022-08-28T22:52:19.508Z,6.78
2022-08-28T22:54:53.174Z,6.60
2022-08-28T22:57:22.184Z,7.62
2022-08-28T22:59:52.625Z,7.80
2022-08-28T23:02:27.306Z,8.73
2022-08-28T23:04:55.921Z,8.28
2022-08-28T23:07:26.437Z,7.47
2022-08-28T23:09:57.578Z,9.13
2022-08-28T23:12:28.830Z,7.37
2022-08-28T23:14:59.186Z,7.33
2022-08-28T23:17:29.993Z,8.53
2022-08-28T23:20:01.957Z,5.33
2022-08-28T23:22:32.313Z,6.65
2022-08-28T23:25:03.008Z,8.45
2022-08-28T23:27:36.161Z,5.40
2022-08-28T23:30:07.925Z,7.15
2022-08-28T23:32:38.381Z,9.45
2022-08-28T23:35:11.810Z,4.33
2022-08-28T23:37:46.667Z,7.40
2022-08-28T23:40:24.135Z,7.35
2022-08-28T23:42:55.529Z,6.17
2022-08-28T23:45:26.109Z,7.20
2022-08-28T23:47:58.250Z,8.00
2022-08-28T23:50:30.260Z,11.45
2022-08-28T23:53:01.139Z,7.10
2022-08-28T23:55:31.706Z,7.05
2022-08-28T23:58:04.673Z,5.62
